Time;durP1;ratioP1;P1;durP2;ratioP2;P2;SDS_P1;SDS_P2;PMS_P1;PMS_P2;Temp;Humidity;BMP_temperature;BMP_pressure;BME280_temperature;BME280_humidity;BME280_pressure;Samples;Min_cycle;Max_cycle;Signal;HPM_P1;HPM_P2
2021/10/08 00:00:57;;;;;;;36.60;24.23;;;;;;;;;;5093549;28;20483;-76
2021/10/08 00:03:24;;;;;;;35.67;22.27;;;;;;;;;;5093344;28;20439;-76
2021/10/08 00:05:51;;;;;;;37.30;24.60;;;;;;;;;;5093627;28;20798;-77
2021/10/08 00:08:18;;;;;;;39.60;24.10;;;;;;;;;;5093627;28;20445;-77
2021/10/08 00:10:47;;;;;;;31.60;22.10;;;;;;;;;;5093474;28;20953;-77
2021/10/08 00:13:14;;;;;;;35.10;22.50;;;;;;;;;;5093495;28;20448;-77
2021/10/08 00:15:41;;;;;;;31.73;22.20;;;;;;;;;;5093509;28;20838;-76
2021/10/08 00:18:09;;;;;;;40.83;24.00;;;;;;;;;;5093501;28;20529;-76
2021/10/08 00:20:36;;;;;;;32.97;24.27;;;;;;;;;;5093118;28;21052;-76
2021/10/08 00:23:03;;;;;;;40.20;24.60;;;;;;;;;;5093468;28;20435;-77
2021/10/08 00:25:30;;;;;;;40.80;23.40;;;;;;;;;;5093426;28;20439;-77
2021/10/08 00:27:59;;;;;;;35.67;23.23;;;;;;;;;;5093079;28;20446;-77
2021/10/08 00:30:26;;;;;;;39.77;24.77;;;;;;;;;;5093634;28;20448;-77
2021/10/08 00:32:53;;;;;;;41.10;24.50;;;;;;;;;;5093318;28;20443;-77
2021/10/08 00:35:21;;;;;;;38.77;24.67;;;;;;;;;;5093538;28;20797;-78
2021/10/08 00:37:50;;;;;;;41.23;26.63;;;;;;;;;;5093314;28;20800;-77
2021/10/08 00:40:17;;;;;;;36.00;22.67;;;;;;;;;;5093316;28;20460;-77
2021/10/08 00:42:45;;;;;;;38.17;24.37;;;;;;;;;;5092943;28;20447;-77
2021/10/08 00:45:13;;;;;;;39.90;24.10;;;;;;;;;;5093365;28;20466;-77
2021/10/08 00:47:41;;;;;;;33.57;23.43;;;;;;;;;;5096551;28;20435;-77
2021/10/08 00:50:08;;;;;;;38.08;23.65;;;;;;;;;;5097457;28;20799;-77
2021/10/08 00:52:36;;;;;;;32.53;22.50;;;;;;;;;;5097181;28;20198;-77
2021/10/08 00:55:03;;;;;;;36.27;23.67;;;;;;;;;;5096627;28;20439;-77
2021/10/08 00:57:30;;;;;;;38.37;24.07;;;;;;;;;;5096581;28;20443;-78
2021/10/08 00:59:58;;;;;;;34.70;24.47;;;;;;;;;;5096806;28;20439;-76
2021/10/08 01:02:27;;;;;;;41.13;21.60;;;;;;;;;;5096740;28;20492;-76
2021/10/08 01:04:57;;;;;;;36.97;23.47;;;;;;;;;;5096469;28;20450;-78
2021/10/08 01:07:24;;;;;;;38.20;24.05;;;;;;;;;;5096795;28;20541;-77
2021/10/08 01:09:51;;;;;;;36.37;24.27;;;;;;;;;;5096115;28;20226;-77
2021/10/08 01:12:18;;;;;;;37.80;23.60;;;;;;;;;;5096262;28;20454;-76
2021/10/08 01:14:45;;;;;;;40.07;26.17;;;;;;;;;;5096565;28;20442;-76
2021/10/08 01:17:14;;;;;;;41.83;23.97;;;;;;;;;;5096516;28;20439;-76
2021/10/08 01:19:42;;;;;;;34.03;23.27;;;;;;;;;;5096971;28;20443;-78
2021/10/08 01:22:11;;;;;;;38.27;23.53;;;;;;;;;;5096328;28;20582;-77
2021/10/08 01:24:39;;;;;;;41.03;24.50;;;;;;;;;;5096374;28;20453;-77
2021/10/08 01:27:07;;;;;;;36.00;23.88;;;;;;;;;;5096718;28;20200;-76
2021/10/08 01:29:35;;;;;;;33.33;22.55;;;;;;;;;;5095983;28;20201;-76
2021/10/08 01:32:02;;;;;;;31.80;21.92;;;;;;;;;;5096289;28;20200;-77
2021/10/08 01:34:29;;;;;;;31.97;23.27;;;;;;;;;;5096504;28;20554;-77
2021/10/08 01:36:57;;;;;;;35.60;21.77;;;;;;;;;;5095871;28;20457;-76
2021/10/08 01:39:25;;;;;;;31.17;21.40;;;;;;;;;;5095733;28;20204;-74
2021/10/08 01:41:52;;;;;;;34.90;21.83;;;;;;;;;;5095983;28;20471;-76
2021/10/08 01:44:19;;;;;;;30.60;21.10;;;;;;;;;;5095990;28;20526;-76
2021/10/08 01:46:47;;;;;;;30.30;19.73;;;;;;;;;;5096001;28;20447;-76
2021/10/08 01:49:14;;;;;;;27.40;19.00;;;;;;;;;;5095642;28;20954;-76
2021/10/08 01:51:41;;;;;;;31.85;20.48;;;;;;;;;;5096166;28;20959;-76
2021/10/08 01:54:10;;;;;;;35.35;21.30;;;;;;;;;;5096165;28;20204;-76
2021/10/08 01:56:40;;;;;;;33.17;20.60;;;;;;;;;;5096413;28;20549;-76
2021/10/08 01:59:08;;;;;;;27.63;19.23;;;;;;;;;;5096204;28;20450;-76
2021/10/08 02:01:35;;;;;;;30.90;21.80;;;;;;;;;;5095678;28;20217;-76
2021/10/08 02:04:02;;;;;;;23.43;19.03;;;;;;;;;;5095349;28;20443;-76
2021/10/08 02:06:29;;;;;;;30.63;21.17;;;;;;;;;;5095768;28;20513;-76
2021/10/08 02:08:57;;;;;;;29.90;20.47;;;;;;;;;;5095033;28;20455;-76
2021/10/08 02:11:24;;;;;;;28.30;19.75;;;;;;;;;;5095791;28;20471;-78
2021/10/08 02:13:52;;;;;;;34.30;20.90;;;;;;;;;;5095129;28;20228;-76
2021/10/08 02:16:20;;;;;;;33.40;20.50;;;;;;;;;;5095411;28;20553;-76
2021/10/08 02:18:47;;;;;;;30.15;20.10;;;;;;;;;;5095001;28;20456;-76
2021/10/08 02:21:14;;;;;;;31.75;20.40;;;;;;;;;;5095449;28;20217;-76
2021/10/08 02:23:41;;;;;;;24.77;19.20;;;;;;;;;;5095248;28;20212;-76
2021/10/08 02:26:09;;;;;;;30.23;21.13;;;;;;;;;;5095435;28;20439;-78
2021/10/08 02:28:36;;;;;;;33.07;20.43;;;;;;;;;;5094788;28;20928;-77
2021/10/08 02:31:04;;;;;;;26.90;18.75;;;;;;;;;;5095403;28;20443;-76
2021/10/08 02:33:34;;;;;;;34.07;19.73;;;;;;;;;;5095227;28;20205;-77
2021/10/08 02:36:01;;;;;;;28.03;20.10;;;;;;;;;;5095545;28;20451;-77
2021/10/08 02:38:29;;;;;;;26.58;18.95;;;;;;;;;;5095052;28;20542;-76
2021/10/08 02:40:56;;;;;;;29.73;18.30;;;;;;;;;;5095172;28;20295;-76
2021/10/08 02:43:24;;;;;;;26.27;19.57;;;;;;;;;;5094868;28;20435;-76
2021/10/08 02:45:51;;;;;;;25.20;17.53;;;;;;;;;;5094822;28;20447;-77
2021/10/08 02:48:20;;;;;;;23.95;18.02;;;;;;;;;;5094433;28;20902;-77
2021/10/08 02:50:48;;;;;;;25.60;18.60;;;;;;;;;;5095474;28;20200;-77
2021/10/08 02:53:15;;;;;;;27.98;18.50;;;;;;;;;;5095499;28;20201;-78
2021/10/08 02:55:42;;;;;;;29.95;18.38;;;;;;;;;;5094862;28;20197;-76
2021/10/08 02:58:09;;;;;;;27.08;19.15;;;;;;;;;;5094826;28;20194;-77
2021/10/08 03:00:36;;;;;;;36.97;19.13;;;;;;;;;;5095061;28;20223;-77
2021/10/08 03:03:03;;;;;;;25.52;18.92;;;;;;;;;;5094659;28;20226;-78
2021/10/08 03:05:32;;;;;;;33.90;18.88;;;;;;;;;;5094482;28;20655;-77
2021/10/08 03:07:59;;;;;;;26.90;19.23;;;;;;;;;;5094072;28;20195;-77
2021/10/08 03:10:26;;;;;;;24.70;17.50;;;;;;;;;;5093760;28;20226;-76
2021/10/08 03:12:54;;;;;;;30.30;18.73;;;;;;;;;;5094052;28;20288;-77
2021/10/08 03:15:21;;;;;;;26.10;17.67;;;;;;;;;;5093969;28;20449;-78
2021/10/08 03:17:48;;;;;;;30.65;18.45;;;;;;;;;;5094995;28;20204;-78
2021/10/08 03:20:15;;;;;;;25.80;19.10;;;;;;;;;;5094615;28;20197;-78
2021/10/08 03:22:44;;;;;;;32.00;19.55;;;;;;;;;;5094396;28;20217;-78
2021/10/08 03:25:11;;;;;;;29.50;17.27;;;;;;;;;;5094101;28;20291;-77
2021/10/08 03:27:38;;;;;;;22.25;15.77;;;;;;;;;;5093802;28;20193;-77
2021/10/08 03:30:07;;;;;;;26.00;18.45;;;;;;;;;;5094478;28;20201;-77
2021/10/08 03:32:34;;;;;;;24.60;18.13;;;;;;;;;;5094478;28;20206;-77
2021/10/08 03:35:01;;;;;;;24.40;17.75;;;;;;;;;;5093954;28;20195;-78
2021/10/08 03:37:34;;;;;;;29.27;19.83;;;;;;;;;;5093990;28;20203;-77
2021/10/08 03:40:02;;;;;;;28.60;20.80;;;;;;;;;;5093585;28;20207;-77
2021/10/08 03:42:29;;;;;;;30.45;19.83;;;;;;;;;;5093768;28;20216;-77
2021/10/08 03:45:03;;;;;;;25.92;19.00;;;;;;;;;;5093524;28;20287;-77
2021/10/08 03:47:40;;;;;;;29.40;19.17;;;;;;;;;;5094233;28;20188;-78
2021/10/08 03:50:08;;;;;;;27.00;19.40;;;;;;;;;;5093483;28;20436;-78
2021/10/08 03:52:35;;;;;;;26.98;18.67;;;;;;;;;;5093760;28;20202;-77
2021/10/08 03:55:04;;;;;;;28.85;18.10;;;;;;;;;;5093685;28;20192;-77
2021/10/08 03:57:31;;;;;;;28.70;18.80;;;;;;;;;;5094177;28;20194;-77
2021/10/08 03:59:58;;;;;;;31.67;20.58;;;;;;;;;;5093236;28;20196;-77
2021/10/08 04:02:25;;;;;;;28.35;20.52;;;;;;;;;;5093260;28;20223;-77
2021/10/08 04:04:52;;;;;;;26.38;19.90;;;;;;;;;;5093237;28;20204;-77
2021/10/08 04:07:20;;;;;;;30.75;20.85;;;;;;;;;;5093739;28;20196;-77
2021/10/08 04:09:47;;;;;;;26.10;19.13;;;;;;;;;;5093698;28;20321;-77
2021/10/08 04:12:15;;;;;;;23.75;16.73;;;;;;;;;;5094292;28;20200;-77
2021/10/08 04:14:43;;;;;;;27.00;18.65;;;;;;;;;;5093559;28;20611;-74
2021/10/08 04:17:10;;;;;;;29.17;20.23;;;;;;;;;;5093532;28;20193;-73
2021/10/08 04:19:38;;;;;;;25.30;18.23;;;;;;;;;;5093151;28;20204;-74
2021/10/08 04:22:05;;;;;;;26.08;17.05;;;;;;;;;;5095280;28;20227;-73
2021/10/08 04:24:32;;;;;;;23.85;16.42;;;;;;;;;;5097559;28;20644;-73
2021/10/08 04:27:00;;;;;;;23.83;17.45;;;;;;;;;;5097324;28;20555;-73
2021/10/08 04:29:28;;;;;;;24.10;16.67;;;;;;;;;;5086106;28;20276;-73
2021/10/08 04:31:55;;;;;;;24.70;17.60;;;;;;;;;;5076100;28;20295;-72
2021/10/08 04:34:23;;;;;;;24.15;18.67;;;;;;;;;;5076370;28;20201;-72
2021/10/08 04:36:50;;;;;;;21.65;15.63;;;;;;;;;;5076093;28;20198;-73
2021/10/08 04:39:18;;;;;;;21.52;16.92;;;;;;;;;;5076433;28;20209;-73
2021/10/08 04:41:45;;;;;;;27.13;15.85;;;;;;;;;;5075977;28;20303;-72
2021/10/08 04:44:12;;;;;;;26.00;16.90;;;;;;;;;;5075833;28;20208;-74
2021/10/08 04:46:40;;;;;;;26.00;17.63;;;;;;;;;;5075598;28;20193;-73
2021/10/08 04:49:08;;;;;;;22.88;16.38;;;;;;;;;;5075918;28;20572;-73
2021/10/08 04:51:35;;;;;;;25.00;17.95;;;;;;;;;;5076434;28;20203;-74
2021/10/08 04:54:03;;;;;;;26.45;16.88;;;;;;;;;;5075981;28;20292;-74
2021/10/08 04:56:32;;;;;;;25.63;16.45;;;;;;;;;;5075815;28;20208;-73
2021/10/08 04:59:00;;;;;;;22.25;16.73;;;;;;;;;;5075096;28;20193;-73
2021/10/08 05:01:27;;;;;;;25.52;16.98;;;;;;;;;;5075459;28;20293;-74
2021/10/08 05:03:56;;;;;;;28.40;17.85;;;;;;;;;;5075641;28;20231;-74
2021/10/08 05:06:23;;;;;;;23.13;17.30;;;;;;;;;;5075778;28;20199;-74
2021/10/08 05:08:50;;;;;;;23.80;17.50;;;;;;;;;;5075402;28;20201;-73
2021/10/08 05:11:18;;;;;;;24.15;17.33;;;;;;;;;;5075550;28;20225;-74
2021/10/08 05:13:45;;;;;;;20.67;17.05;;;;;;;;;;5075528;28;20749;-73
2021/10/08 05:16:12;;;;;;;23.67;17.58;;;;;;;;;;5075414;28;20194;-74
2021/10/08 05:18:39;;;;;;;22.27;17.13;;;;;;;;;;5075233;28;20251;-73
2021/10/08 05:21:08;;;;;;;22.30;16.15;;;;;;;;;;5075575;28;20289;-74
2021/10/08 05:23:35;;;;;;;25.30;17.67;;;;;;;;;;5075070;28;20220;-74
2021/10/08 05:26:03;;;;;;;26.35;17.45;;;;;;;;;;5075576;28;20193;-74
2021/10/08 05:28:30;;;;;;;26.13;18.65;;;;;;;;;;5074730;28;20287;-72
2021/10/08 05:30:57;;;;;;;29.77;19.65;;;;;;;;;;5075688;28;20244;-75
2021/10/08 05:33:24;;;;;;;27.25;17.45;;;;;;;;;;5075234;28;20288;-73
2021/10/08 05:35:52;;;;;;;26.80;19.30;;;;;;;;;;5074992;28;20297;-68
2021/10/08 05:38:20;;;;;;;26.80;19.50;;;;;;;;;;5075563;28;20299;-74
2021/10/08 05:40:48;;;;;;;23.10;17.75;;;;;;;;;;5075553;28;20194;-74
2021/10/08 05:43:15;;;;;;;24.50;18.90;;;;;;;;;;5075701;28;20262;-74
2021/10/08 05:45:43;;;;;;;26.90;18.58;;;;;;;;;;5075871;28;20198;-74
2021/10/08 05:48:10;;;;;;;34.75;21.17;;;;;;;;;;5075410;28;20197;-74
2021/10/08 05:50:37;;;;;;;25.55;19.00;;;;;;;;;;5075432;28;20200;-74
2021/10/08 05:53:05;;;;;;;25.80;19.77;;;;;;;;;;5075810;28;20207;-73
2021/10/08 05:55:33;;;;;;;26.33;18.90;;;;;;;;;;5075551;28;20439;-73
2021/10/08 05:58:01;;;;;;;26.90;19.05;;;;;;;;;;5075549;28;20288;-74
2021/10/08 06:00:28;;;;;;;25.13;18.55;;;;;;;;;;5075663;28;20246;-74
2021/10/08 06:02:55;;;;;;;29.58;19.70;;;;;;;;;;5075045;28;20217;-74
2021/10/08 06:05:23;;;;;;;28.83;20.90;;;;;;;;;;5075011;28;20206;-74
2021/10/08 06:07:50;;;;;;;34.72;19.75;;;;;;;;;;5074968;28;20197;-74
2021/10/08 06:10:17;;;;;;;31.75;20.75;;;;;;;;;;5075449;28;20225;-74
2021/10/08 06:12:46;;;;;;;27.85;19.80;;;;;;;;;;5074886;28;20698;-74
2021/10/08 06:15:13;;;;;;;31.80;19.88;;;;;;;;;;5075206;28;20204;-74
2021/10/08 06:17:40;;;;;;;24.35;18.42;;;;;;;;;;5075093;28;20198;-74
2021/10/08 06:20:08;;;;;;;26.67;20.05;;;;;;;;;;5075081;28;20194;-73
2021/10/08 06:22:36;;;;;;;33.50;22.33;;;;;;;;;;5075142;28;20222;-73
2021/10/08 06:25:04;;;;;;;34.95;21.90;;;;;;;;;;5075089;28;20209;-73
2021/10/08 06:27:31;;;;;;;25.48;18.80;;;;;;;;;;5074907;28;20190;-73
2021/10/08 06:30:00;;;;;;;26.00;19.75;;;;;;;;;;5074897;28;20340;-73
2021/10/08 06:32:27;;;;;;;28.75;18.40;;;;;;;;;;5074886;28;20281;-74
2021/10/08 06:34:55;;;;;;;29.80;19.85;;;;;;;;;;5074888;28;20220;-74
2021/10/08 06:37:22;;;;;;;25.20;19.45;;;;;;;;;;5074737;28;20194;-73
2021/10/08 06:39:49;;;;;;;29.00;19.45;;;;;;;;;;5074820;28;20194;-73
2021/10/08 06:42:20;;;;;;;29.13;20.47;;;;;;;;;;5074578;28;20194;-73
2021/10/08 06:44:47;;;;;;;29.70;20.90;;;;;;;;;;5074272;28;20441;-73
2021/10/08 06:47:15;;;;;;;34.22;21.40;;;;;;;;;;5075164;28;20444;-73
2021/10/08 06:49:42;;;;;;;32.42;18.73;;;;;;;;;;5074455;28;20193;-73
2021/10/08 06:52:10;;;;;;;33.37;21.17;;;;;;;;;;5074167;28;20194;-75
2021/10/08 06:54:37;;;;;;;32.55;21.35;;;;;;;;;;5074069;28;20535;-74
2021/10/08 06:57:04;;;;;;;30.30;19.67;;;;;;;;;;5074523;28;20201;-74
2021/10/08 06:59:31;;;;;;;35.20;22.17;;;;;;;;;;5074549;28;20220;-73
2021/10/08 07:01:58;;;;;;;29.40;21.60;;;;;;;;;;5074665;28;20450;-73
2021/10/08 07:04:27;;;;;;;32.05;19.95;;;;;;;;;;5074411;28;20479;-74
2021/10/08 07:06:54;;;;;;;35.67;22.05;;;;;;;;;;5074627;28;20284;-73
2021/10/08 07:09:21;;;;;;;34.07;23.97;;;;;;;;;;5074135;28;20200;-73
2021/10/08 07:11:48;;;;;;;44.80;26.70;;;;;;;;;;5074417;28;20821;-73
2021/10/08 07:14:16;;;;;;;32.73;22.53;;;;;;;;;;5074062;28;20447;-73
2021/10/08 07:16:43;;;;;;;30.77;23.60;;;;;;;;;;5074524;28;20532;-75
2021/10/08 07:19:13;;;;;;;32.93;23.27;;;;;;;;;;5074727;28;20778;-74
2021/10/08 07:21:42;;;;;;;36.33;22.20;;;;;;;;;;5074203;28;20455;-74
2021/10/08 07:24:10;;;;;;;31.70;21.70;;;;;;;;;;5073456;28;20479;-74
2021/10/08 07:26:37;;;;;;;38.40;23.60;;;;;;;;;;5073792;28;20452;-74
2021/10/08 07:29:05;;;;;;;40.45;21.70;;;;;;;;;;5074181;28;20288;-74
2021/10/08 07:31:32;;;;;;;33.53;23.13;;;;;;;;;;5073779;28;20198;-73
2021/10/08 07:34:00;;;;;;;35.00;22.30;;;;;;;;;;5073725;28;20448;-74
2021/10/08 07:36:27;;;;;;;38.50;23.17;;;;;;;;;;5073794;28;20535;-74
2021/10/08 07:38:55;;;;;;;31.80;21.23;;;;;;;;;;5073557;28;20444;-74
2021/10/08 07:41:23;;;;;;;30.73;20.67;;;;;;;;;;5073669;28;20790;-74
2021/10/08 07:43:51;;;;;;;35.83;20.50;;;;;;;;;;5074345;28;20855;-74
2021/10/08 07:46:18;;;;;;;36.60;21.00;;;;;;;;;;5073595;28;20527;-74
2021/10/08 07:48:45;;;;;;;36.60;21.40;;;;;;;;;;5073617;28;20443;-74
2021/10/08 07:51:13;;;;;;;32.70;20.97;;;;;;;;;;5074309;28;20445;-75
2021/10/08 07:53:40;;;;;;;37.40;21.20;;;;;;;;;;5073480;28;20443;-74
2021/10/08 07:56:09;;;;;;;35.88;21.00;;;;;;;;;;5073975;28;20817;-74
2021/10/08 07:58:37;;;;;;;36.40;23.53;;;;;;;;;;5073449;28;20288;-74
2021/10/08 08:01:05;;;;;;;35.60;20.27;;;;;;;;;;5073449;28;20523;-74
2021/10/08 08:03:33;;;;;;;29.73;19.87;;;;;;;;;;5073359;28;20522;-75
2021/10/08 08:06:00;;;;;;;28.10;18.87;;;;;;;;;;5073387;28;20800;-73
2021/10/08 08:08:27;;;;;;;25.90;19.33;;;;;;;;;;5073098;28;20443;-74
2021/10/08 08:10:55;;;;;;;24.60;17.80;;;;;;;;;;5073340;28;20963;-74
2021/10/08 08:13:23;;;;;;;29.33;19.73;;;;;;;;;;5073323;28;20451;-74
2021/10/08 08:15:50;;;;;;;24.53;17.93;;;;;;;;;;5073035;28;20440;-74
2021/10/08 08:18:18;;;;;;;24.17;17.77;;;;;;;;;;5073454;28;20534;-75
2021/10/08 08:20:45;;;;;;;25.07;18.00;;;;;;;;;;5072966;28;20447;-74
2021/10/08 08:23:13;;;;;;;26.70;16.63;;;;;;;;;;5073095;28;20472;-74
2021/10/08 08:25:40;;;;;;;29.87;17.40;;;;;;;;;;5072898;28;20448;-74
2021/10/08 08:28:07;;;;;;;21.00;16.63;;;;;;;;;;5072826;28;20440;-73
2021/10/08 08:30:39;;;;;;;26.30;17.57;;;;;;;;;;5072675;28;20543;-74
2021/10/08 08:33:06;;;;;;;17.57;15.23;;;;;;;;;;5073229;28;20531;-74
2021/10/08 08:35:33;;;;;;;19.47;16.30;;;;;;;;;;5072884;28;20919;-74
2021/10/08 08:38:00;;;;;;;27.60;16.10;;;;;;;;;;5073113;28;20455;-74
2021/10/08 08:40:29;;;;;;;20.70;15.20;;;;;;;;;;5073095;28;20444;-74
2021/10/08 08:42:56;;;;;;;19.83;13.93;;;;;;;;;;5073251;28;20432;-74
2021/10/08 08:45:23;;;;;;;18.10;14.40;;;;;;;;;;5073017;28;20440;-75
2021/10/08 08:48:03;;;;;;;17.33;14.77;;;;;;;;;;5072981;28;20440;-75
2021/10/08 08:50:31;;;;;;;21.77;15.83;;;;;;;;;;5072634;28;20535;-74
2021/10/08 08:52:58;;;;;;;21.13;15.63;;;;;;;;;;5072994;28;20444;-75
2021/10/08 08:55:26;;;;;;;23.17;16.03;;;;;;;;;;5072548;28;20943;-75
2021/10/08 08:57:53;;;;;;;21.40;15.03;;;;;;;;;;5072930;28;20440;-74
2021/10/08 09:00:21;;;;;;;17.60;14.40;;;;;;;;;;5072523;28;20958;-74
2021/10/08 09:02:54;;;;;;;19.53;14.67;;;;;;;;;;5073114;28;20519;-74
2021/10/08 09:05:23;;;;;;;25.47;14.77;;;;;;;;;;5073185;28;20464;-74
2021/10/08 09:07:51;;;;;;;19.33;15.13;;;;;;;;;;5074678;28;20449;-75
2021/10/08 09:10:19;;;;;;;15.03;13.13;;;;;;;;;;5075945;28;20467;-74
2021/10/08 09:12:47;;;;;;;19.83;13.93;;;;;;;;;;5075986;28;20441;-74
2021/10/08 09:15:15;;;;;;;14.50;13.00;;;;;;;;;;5076464;28;20444;-75
2021/10/08 09:17:42;;;;;;;15.83;12.90;;;;;;;;;;5076791;28;20516;-74
2021/10/08 09:20:10;;;;;;;21.20;13.93;;;;;;;;;;5076602;28;20935;-74
2021/10/08 09:22:53;;;;;;;15.93;12.53;;;;;;;;;;5076478;28;20452;-74
2021/10/08 09:25:22;;;;;;;16.57;13.30;;;;;;;;;;5075788;28;20511;-74
2021/10/08 09:27:51;;;;;;;14.23;12.80;;;;;;;;;;5076374;28;20432;-74
2021/10/08 09:30:18;;;;;;;16.33;12.00;;;;;;;;;;5076393;28;20441;-74
2021/10/08 09:32:46;;;;;;;13.57;11.40;;;;;;;;;;5075725;28;21024;-74
2021/10/08 09:35:15;;;;;;;13.30;11.90;;;;;;;;;;5075968;28;20787;-74
2021/10/08 09:37:44;;;;;;;14.27;11.87;;;;;;;;;;5076373;28;20441;-75
2021/10/08 09:40:30;;;;;;;12.53;10.33;;;;;;;;;;5075410;28;20462;-74
2021/10/08 09:42:58;;;;;;;14.80;13.03;;;;;;;;;;5076064;28;20894;-74
2021/10/08 09:45:35;;;;;;;14.57;13.07;;;;;;;;;;5075387;28;20476;-74
2021/10/08 09:48:02;;;;;;;17.93;14.80;;;;;;;;;;5075590;28;20453;-74
2021/10/08 09:50:29;;;;;;;18.13;16.23;;;;;;;;;;5075632;28;20448;-74
2021/10/08 09:53:08;;;;;;;17.33;14.73;;;;;;;;;;5075643;28;20515;-75
2021/10/08 09:55:39;;;;;;;19.53;14.97;;;;;;;;;;5076165;28;20522;-74
2021/10/08 09:58:06;;;;;;;15.30;13.70;;;;;;;;;;5075295;28;20425;-75
2021/10/08 10:00:38;;;;;;;22.87;15.77;;;;;;;;;;5075571;28;20527;-74
2021/10/08 10:03:06;;;;;;;17.00;15.20;;;;;;;;;;5075145;28;20445;-75
2021/10/08 10:05:34;;;;;;;15.77;14.13;;;;;;;;;;5075327;28;20484;-74
2021/10/08 10:08:01;;;;;;;16.57;14.60;;;;;;;;;;5075429;28;20781;-74
2021/10/08 10:10:29;;;;;;;17.30;15.50;;;;;;;;;;5075512;28;20559;-74
2021/10/08 10:13:00;;;;;;;16.73;15.10;;;;;;;;;;5074929;28;20437;-74
2021/10/08 10:15:27;;;;;;;16.93;14.97;;;;;;;;;;5074843;28;20451;-74
2021/10/08 10:17:56;;;;;;;15.67;14.17;;;;;;;;;;5074832;28;20451;-74
2021/10/08 10:20:24;;;;;;;15.70;13.10;;;;;;;;;;5075061;28;20481;-73
2021/10/08 10:22:51;;;;;;;17.57;13.83;;;;;;;;;;5074803;28;20451;-74
2021/10/08 10:25:19;;;;;;;13.83;11.93;;;;;;;;;;5074670;28;20514;-74
2021/10/08 10:27:46;;;;;;;12.07;10.83;;;;;;;;;;5075068;28;20529;-74
2021/10/08 10:30:14;;;;;;;13.50;11.93;;;;;;;;;;5074868;28;20443;-74
2021/10/08 10:32:46;;;;;;;15.90;12.43;;;;;;;;;;5074778;28;20442;-74
2021/10/08 10:35:37;;;;;;;13.70;12.20;;;;;;;;;;5075051;28;20540;-74
2021/10/08 10:38:19;;;;;;;23.13;13.93;;;;;;;;;;5074943;28;20428;-74
2021/10/08 10:40:46;;;;;;;14.70;10.30;;;;;;;;;;5075250;28;20445;-73
2021/10/08 10:43:33;;;;;;;11.13;10.13;;;;;;;;;;5074225;28;20442;-75
2021/10/08 10:46:15;;;;;;;12.57;11.27;;;;;;;;;;5075108;28;20445;-74
2021/10/08 10:48:47;;;;;;;15.70;11.30;;;;;;;;;;5074585;28;20433;-74
2021/10/08 10:51:19;;;;;;;12.10;10.90;;;;;;;;;;5074621;28;20449;-74
2021/10/08 10:53:50;;;;;;;11.80;10.60;;;;;;;;;;5074934;28;20433;-74
2021/10/08 10:56:32;;;;;;;14.93;10.87;;;;;;;;;;5074046;28;20451;-74
2021/10/08 10:59:14;;;;;;;10.90;9.80;;;;;;;;;;5073980;28;20446;-74
2021/10/08 11:01:57;;;;;;;11.00;9.90;;;;;;;;;;5073974;28;20536;-74
2021/10/08 11:04:27;;;;;;;11.77;10.43;;;;;;;;;;5073714;28;20477;-74
2021/10/08 11:07:04;;;;;;;13.83;10.10;;;;;;;;;;5074136;28;20458;-74
2021/10/08 11:09:31;;;;;;;10.73;9.77;;;;;;;;;;5073760;28;20458;-72
2021/10/08 11:12:17;;;;;;;11.57;10.10;;;;;;;;;;5074011;28;20437;-73
2021/10/08 11:14:48;;;;;;;11.30;10.10;;;;;;;;;;5074035;28;20537;-74
2021/10/08 11:17:34;;;;;;;10.63;9.63;;;;;;;;;;5074159;28;20467;-74
2021/10/08 11:20:05;;;;;;;13.03;11.10;;;;;;;;;;5073538;28;20438;-74
2021/10/08 11:22:44;;;;;;;11.77;10.57;;;;;;;;;;5073571;28;20526;-74
2021/10/08 11:25:14;;;;;;;10.83;9.93;;;;;;;;;;5073388;28;21021;-75
2021/10/08 11:27:42;;;;;;;10.77;8.93;;;;;;;;;;5073422;28;20447;-74
2021/10/08 11:30:10;;;;;;;11.20;9.53;;;;;;;;;;5072967;28;20450;-74
2021/10/08 11:32:37;;;;;;;10.90;9.50;;;;;;;;;;5073301;28;20445;-74
2021/10/08 11:35:06;;;;;;;10.00;9.00;;;;;;;;;;5073295;28;20446;-74
2021/10/08 11:37:41;;;;;;;10.17;9.17;;;;;;;;;;5073729;28;20445;-74
2021/10/08 11:40:10;;;;;;;13.43;9.73;;;;;;;;;;5073521;28;20453;-74
2021/10/08 11:42:40;;;;;;;9.83;8.93;;;;;;;;;;5073341;28;20533;-74
2021/10/08 11:45:10;;;;;;;13.87;9.00;;;;;;;;;;5073801;28;20471;-74
2021/10/08 11:47:41;;;;;;;9.23;8.33;;;;;;;;;;5073868;28;20789;-74
2021/10/08 11:50:30;;;;;;;12.50;8.27;;;;;;;;;;5073206;28;20477;-74
2021/10/08 11:52:58;;;;;;;8.90;8.00;;;;;;;;;;5073232;28;20955;-74
2021/10/08 11:55:27;;;;;;;10.83;9.70;;;;;;;;;;5073661;28;20783;-74
2021/10/08 11:57:55;;;;;;;19.73;15.13;;;;;;;;;;5073382;28;20501;-77
2021/10/08 12:00:24;;;;;;;10.90;8.77;;;;;;;;;;5073468;28;20440;-70
2021/10/08 12:03:12;;;;;;;9.63;8.10;;;;;;;;;;5073079;28;20925;-76
2021/10/08 12:05:46;;;;;;;8.90;8.07;;;;;;;;;;5069063;28;20569;-72
2021/10/08 12:08:15;;;;;;;12.20;7.40;;;;;;;;;;5073660;28;20430;-74
2021/10/08 12:10:51;;;;;;;11.00;8.30;;;;;;;;;;5072958;28;20486;-75
2021/10/08 12:13:19;;;;;;;8.57;7.13;;;;;;;;;;5073578;28;20428;-74
2021/10/08 12:15:46;;;;;;;11.47;7.77;;;;;;;;;;5073213;28;20542;-75
2021/10/08 12:18:16;;;;;;;10.10;7.70;;;;;;;;;;5071708;28;20925;-73
2021/10/08 12:20:45;;;;;;;10.13;7.93;;;;;;;;;;5072826;28;20537;-74
2021/10/08 12:23:20;;;;;;;10.80;7.17;;;;;;;;;;5072041;28;20475;-73
2021/10/08 12:25:48;;;;;;;7.27;6.57;;;;;;;;;;5072158;28;20485;-73
2021/10/08 12:28:19;;;;;;;11.20;9.57;;;;;;;;;;5072775;28;20448;-73
2021/10/08 12:30:50;;;;;;;12.20;10.43;;;;;;;;;;5072239;28;20520;-74
2021/10/08 12:33:24;;;;;;;8.27;7.40;;;;;;;;;;5072290;28;20433;-74
2021/10/08 12:36:06;;;;;;;8.37;6.87;;;;;;;;;;5072303;28;20504;-74
2021/10/08 12:38:48;;;;;;;9.50;8.27;;;;;;;;;;5071596;28;20964;-74
2021/10/08 12:41:26;;;;;;;7.90;6.60;;;;;;;;;;5072256;28;20485;-74
2021/10/08 12:44:03;;;;;;;7.70;7.00;;;;;;;;;;5075350;28;20945;-73
2021/10/08 12:46:34;;;;;;;7.23;6.53;;;;;;;;;;5075900;28;20466;-73
2021/10/08 12:49:01;;;;;;;8.00;6.30;;;;;;;;;;5075793;28;20958;-74
2021/10/08 12:51:29;;;;;;;8.00;6.37;;;;;;;;;;5076203;28;20489;-73
2021/10/08 12:54:12;;;;;;;9.50;6.37;;;;;;;;;;5075896;28;20450;-74
2021/10/08 12:56:41;;;;;;;9.07;7.40;;;;;;;;;;5075854;28;20441;-73
2021/10/08 12:59:08;;;;;;;7.03;6.33;;;;;;;;;;5076049;28;20532;-73
2021/10/08 13:01:35;;;;;;;7.57;6.67;;;;;;;;;;5075984;28;20529;-73
2021/10/08 13:04:17;;;;;;;6.60;5.73;;;;;;;;;;5075678;28;20450;-74
2021/10/08 13:06:46;;;;;;;5.73;5.23;;;;;;;;;;5075727;28;20947;-74
2021/10/08 13:09:15;;;;;;;7.80;5.70;;;;;;;;;;5075945;28;20537;-73
2021/10/08 13:11:44;;;;;;;6.47;5.37;;;;;;;;;;5076046;28;20479;-73
2021/10/08 13:14:18;;;;;;;9.47;6.10;;;;;;;;;;5075608;28;20533;-74
2021/10/08 13:16:46;;;;;;;6.70;6.07;;;;;;;;;;5075220;28;20436;-74
2021/10/08 13:19:28;;;;;;;5.93;5.33;;;;;;;;;;5076086;28;20437;-74
2021/10/08 13:21:55;;;;;;;6.70;5.63;;;;;;;;;;5075471;28;20426;-74
2021/10/08 13:24:22;;;;;;;13.90;5.20;;;;;;;;;;5075684;28;20529;-74
2021/10/08 13:26:50;;;;;;;6.23;5.07;;;;;;;;;;5075076;28;20581;-74
2021/10/08 13:29:18;;;;;;;5.43;4.90;;;;;;;;;;5075222;28;20957;-73
2021/10/08 13:31:45;;;;;;;5.47;4.93;;;;;;;;;;5075468;28;20802;-74
2021/10/08 13:34:13;;;;;;;6.63;4.50;;;;;;;;;;5075207;28;20482;-75
2021/10/08 13:36:40;;;;;;;4.63;4.20;;;;;;;;;;5075335;28;20447;-74
2021/10/08 13:39:08;;;;;;;4.30;3.90;;;;;;;;;;5073293;28;20544;-73
2021/10/08 13:41:35;;;;;;;8.73;4.30;;;;;;;;;;5074956;28;20537;-74
2021/10/08 13:44:03;;;;;;;3.90;3.50;;;;;;;;;;5074333;28;20448;-75
2021/10/08 13:46:31;;;;;;;4.97;3.70;;;;;;;;;;5074687;28;20476;-73
2021/10/08 13:48:58;;;;;;;5.80;4.00;;;;;;;;;;5074009;28;20454;-74
2021/10/08 13:51:25;;;;;;;3.70;3.37;;;;;;;;;;5074987;28;20440;-75
2021/10/08 13:53:52;;;;;;;7.13;3.33;;;;;;;;;;5073824;28;20451;-75
2021/10/08 13:56:19;;;;;;;3.93;3.70;;;;;;;;;;5074419;28;20450;-75
2021/10/08 13:58:46;;;;;;;6.97;4.17;;;;;;;;;;5074596;28;20438;-75
2021/10/08 14:01:15;;;;;;;7.97;5.77;;;;;;;;;;5073777;28;20540;-74
2021/10/08 14:03:49;;;;;;;5.07;4.47;;;;;;;;;;5073774;28;20435;-74
2021/10/08 14:11:51;;;;;;;7.43;4.33;;;;;;;;;;5017213;28;20467;-74
2021/10/08 14:14:19;;;;;;;8.50;4.40;;;;;;;;;;5073910;28;20439;-75
2021/10/08 14:16:48;;;;;;;5.93;5.20;;;;;;;;;;5074086;28;20463;-74
2021/10/08 14:19:15;;;;;;;4.37;3.97;;;;;;;;;;5074370;28;20438;-75
2021/10/08 14:21:42;;;;;;;6.20;4.67;;;;;;;;;;5074255;28;20960;-74
2021/10/08 14:24:09;;;;;;;4.50;4.20;;;;;;;;;;5073891;28;20541;-76
2021/10/08 14:26:36;;;;;;;7.83;5.17;;;;;;;;;;5074542;28;20556;-74
2021/10/08 14:29:04;;;;;;;6.40;3.90;;;;;;;;;;5074149;28;20870;-75
2021/10/08 14:31:32;;;;;;;4.97;4.47;;;;;;;;;;5073895;28;21124;-75
2021/10/08 14:34:00;;;;;;;4.43;4.13;;;;;;;;;;5073747;28;20443;-75
2021/10/08 14:36:27;;;;;;;5.37;4.63;;;;;;;;;;5073694;28;20448;-76